sensor_id;sensor_type;location;lat;lon;timestamp;P1;durP1;ratioP1;P2;durP2;ratioP2
42246;SDS011;27913;42.722;23.268;2022-09-09T00:04:43;7.88;;;4.15;;
42246;SDS011;27913;42.722;23.268;2022-09-09T00:21:33;8.15;;;4.63;;
42246;SDS011;27913;42.722;23.268;2022-09-09T00:29:58;7.75;;;4.30;;
42246;SDS011;27913;42.722;23.268;2022-09-09T00:32:48;7.07;;;4.03;;
42246;SDS011;27913;42.722;23.268;2022-09-09T00:35:21;10.63;;;5.38;;
42246;SDS011;27913;42.722;23.268;2022-09-09T00:38:21;9.05;;;4.78;;
42246;SDS011;27913;42.722;23.268;2022-09-09T00:41:03;10.85;;;4.80;;
42246;SDS011;27913;42.722;23.268;2022-09-09T00:43:36;12.40;;;5.03;;
42246;SDS011;27913;42.722;23.268;2022-09-09T00:46:09;9.18;;;5.20;;
42246;SDS011;27913;42.722;23.268;2022-09-09T00:49:01;9.85;;;4.88;;
42246;SDS011;27913;42.722;23.268;2022-09-09T00:51:44;10.60;;;4.25;;
42246;SDS011;27913;42.722;23.268;2022-09-09T00:55:24;11.50;;;4.68;;
42246;SDS011;27913;42.722;23.268;2022-09-09T00:57:25;8.02;;;4.43;;
42246;SDS011;27913;42.722;23.268;2022-09-09T01:07:58;10.13;;;4.93;;
42246;SDS011;27913;42.722;23.268;2022-09-09T01:13:08;8.38;;;4.78;;
42246;SDS011;27913;42.722;23.268;2022-09-09T01:15:40;7.78;;;4.65;;
42246;SDS011;27913;42.722;23.268;2022-09-09T01:18:10;10.40;;;5.10;;
42246;SDS011;27913;42.722;23.268;2022-09-09T01:20:43;10.00;;;4.75;;
42246;SDS011;27913;42.722;23.268;2022-09-09T01:28:30;7.13;;;4.18;;
42246;SDS011;27913;42.722;23.268;2022-09-09T01:30:57;10.13;;;5.00;;
42246;SDS011;27913;42.722;23.268;2022-09-09T01:33:23;9.80;;;4.68;;
42246;SDS011;27913;42.722;23.268;2022-09-09T01:38:25;10.55;;;4.80;;
42246;SDS011;27913;42.722;23.268;2022-09-09T01:40:52;9.85;;;4.63;;
42246;SDS011;27913;42.722;23.268;2022-09-09T01:43:21;10.25;;;4.85;;
42246;SDS011;27913;42.722;23.268;2022-09-09T01:45:48;10.15;;;5.43;;
42246;SDS011;27913;42.722;23.268;2022-09-09T01:48:18;11.77;;;5.55;;
42246;SDS011;27913;42.722;23.268;2022-09-09T01:50:44;8.52;;;4.35;;
42246;SDS011;27913;42.722;23.268;2022-09-09T01:53:10;8.77;;;4.78;;
42246;SDS011;27913;42.722;23.268;2022-09-09T01:55:37;8.30;;;4.95;;
42246;SDS011;27913;42.722;23.268;2022-09-09T01:58:11;8.73;;;4.82;;
42246;SDS011;27913;42.722;23.268;2022-09-09T02:01:03;8.27;;;4.60;;
42246;SDS011;27913;42.722;23.268;2022-09-09T02:03:37;11.70;;;4.60;;
42246;SDS011;27913;42.722;23.268;2022-09-09T02:08:42;7.97;;;4.82;;
42246;SDS011;27913;42.722;23.268;2022-09-09T02:11:14;9.30;;;4.60;;
42246;SDS011;27913;42.722;23.268;2022-09-09T02:13:45;7.67;;;4.47;;
42246;SDS011;27913;42.722;23.268;2022-09-09T02:18:54;8.30;;;4.53;;
42246;SDS011;27913;42.722;23.268;2022-09-09T02:21:26;8.18;;;4.72;;
42246;SDS011;27913;42.722;23.268;2022-09-09T02:23:55;7.82;;;4.53;;
42246;SDS011;27913;42.722;23.268;2022-09-09T02:26:24;8.80;;;4.97;;
42246;SDS011;27913;42.722;23.268;2022-09-09T02:28:52;8.48;;;4.65;;
42246;SDS011;27913;42.722;23.268;2022-09-09T02:31:20;8.65;;;4.63;;
42246;SDS011;27913;42.722;23.268;2022-09-09T02:33:49;9.52;;;4.82;;
42246;SDS011;27913;42.722;23.268;2022-09-09T02:36:24;9.00;;;5.05;;
42246;SDS011;27913;42.722;23.268;2022-09-09T02:38:54;11.52;;;5.07;;
42246;SDS011;27913;42.722;23.268;2022-09-09T02:41:24;8.93;;;4.82;;
42246;SDS011;27913;42.722;23.268;2022-09-09T02:43:52;10.13;;;5.10;;
42246;SDS011;27913;42.722;23.268;2022-09-09T02:51:31;9.13;;;5.63;;
42246;SDS011;27913;42.722;23.268;2022-09-09T02:56:48;11.48;;;5.15;;
42246;SDS011;27913;42.722;23.268;2022-09-09T02:59:18;8.60;;;5.22;;
42246;SDS011;27913;42.722;23.268;2022-09-09T03:01:44;9.15;;;5.22;;
42246;SDS011;27913;42.722;23.268;2022-09-09T03:04:10;9.40;;;5.55;;
42246;SDS011;27913;42.722;23.268;2022-09-09T03:06:35;9.25;;;5.25;;
42246;SDS011;27913;42.722;23.268;2022-09-09T03:09:01;9.63;;;5.10;;
42246;SDS011;27913;42.722;23.268;2022-09-09T03:11:27;10.43;;;5.07;;
42246;SDS011;27913;42.722;23.268;2022-09-09T03:13:53;7.10;;;4.53;;
42246;SDS011;27913;42.722;23.268;2022-09-09T03:16:21;12.25;;;5.18;;
42246;SDS011;27913;42.722;23.268;2022-09-09T03:18:49;11.93;;;5.28;;
42246;SDS011;27913;42.722;23.268;2022-09-09T03:21:15;12.57;;;4.80;;
42246;SDS011;27913;42.722;23.268;2022-09-09T03:23:40;8.65;;;5.25;;
42246;SDS011;27913;42.722;23.268;2022-09-09T03:26:06;11.98;;;5.53;;
42246;SDS011;27913;42.722;23.268;2022-09-09T03:28:32;10.57;;;4.95;;
42246;SDS011;27913;42.722;23.268;2022-09-09T03:31:01;11.27;;;5.40;;
42246;SDS011;27913;42.722;23.268;2022-09-09T03:33:29;9.55;;;5.22;;
42246;SDS011;27913;42.722;23.268;2022-09-09T03:35:55;9.45;;;5.28;;
42246;SDS011;27913;42.722;23.268;2022-09-09T03:38:24;8.85;;;5.15;;
42246;SDS011;27913;42.722;23.268;2022-09-09T03:40:50;12.07;;;5.45;;
42246;SDS011;27913;42.722;23.268;2022-09-09T03:43:20;13.30;;;5.93;;
42246;SDS011;27913;42.722;23.268;2022-09-09T03:45:50;9.75;;;5.60;;
42246;SDS011;27913;42.722;23.268;2022-09-09T03:48:16;9.77;;;5.63;;
42246;SDS011;27913;42.722;23.268;2022-09-09T03:50:49;13.30;;;6.07;;
42246;SDS011;27913;42.722;23.268;2022-09-09T03:53:17;12.27;;;6.13;;
42246;SDS011;27913;42.722;23.268;2022-09-09T03:55:44;10.43;;;5.93;;
42246;SDS011;27913;42.722;23.268;2022-09-09T03:58:12;9.70;;;5.65;;
42246;SDS011;27913;42.722;23.268;2022-09-09T04:00:43;15.30;;;7.45;;
42246;SDS011;27913;42.722;23.268;2022-09-09T04:03:17;12.57;;;6.70;;
42246;SDS011;27913;42.722;23.268;2022-09-09T04:05:43;12.95;;;5.45;;
42246;SDS011;27913;42.722;23.268;2022-09-09T04:08:08;9.48;;;4.88;;
42246;SDS011;27913;42.722;23.268;2022-09-09T04:10:34;9.48;;;5.28;;
42246;SDS011;27913;42.722;23.268;2022-09-09T04:13:03;11.88;;;5.32;;
42246;SDS011;27913;42.722;23.268;2022-09-09T04:15:30;9.77;;;5.10;;
42246;SDS011;27913;42.722;23.268;2022-09-09T04:17:55;10.85;;;5.03;;
42246;SDS011;27913;42.722;23.268;2022-09-09T04:20:21;11.38;;;5.38;;
42246;SDS011;27913;42.722;23.268;2022-09-09T04:22:47;12.40;;;5.25;;
42246;SDS011;27913;42.722;23.268;2022-09-09T04:25:13;11.63;;;6.18;;
42246;SDS011;27913;42.722;23.268;2022-09-09T04:27:39;12.00;;;6.00;;
42246;SDS011;27913;42.722;23.268;2022-09-09T04:30:05;13.30;;;6.20;;
42246;SDS011;27913;42.722;23.268;2022-09-09T04:32:34;17.75;;;6.90;;
42246;SDS011;27913;42.722;23.268;2022-09-09T04:35:01;11.95;;;6.15;;
42246;SDS011;27913;42.722;23.268;2022-09-09T04:37:27;16.27;;;6.10;;
42246;SDS011;27913;42.722;23.268;2022-09-09T04:39:53;13.00;;;6.38;;
42246;SDS011;27913;42.722;23.268;2022-09-09T04:42:19;12.35;;;6.35;;
42246;SDS011;27913;42.722;23.268;2022-09-09T04:44:44;9.40;;;5.30;;
42246;SDS011;27913;42.722;23.268;2022-09-09T04:47:10;11.60;;;5.53;;
42246;SDS011;27913;42.722;23.268;2022-09-09T04:49:36;12.10;;;5.93;;
42246;SDS011;27913;42.722;23.268;2022-09-09T04:52:02;10.15;;;5.60;;
42246;SDS011;27913;42.722;23.268;2022-09-09T04:54:28;11.38;;;5.80;;
42246;SDS011;27913;42.722;23.268;2022-09-09T04:56:54;11.30;;;5.72;;
42246;SDS011;27913;42.722;23.268;2022-09-09T04:59:20;12.50;;;5.72;;
42246;SDS011;27913;42.722;23.268;2022-09-09T05:01:46;8.45;;;5.10;;
42246;SDS011;27913;42.722;23.268;2022-09-09T05:04:12;8.35;;;5.40;;
42246;SDS011;27913;42.722;23.268;2022-09-09T05:06:40;12.05;;;5.55;;
42246;SDS011;27913;42.722;23.268;2022-09-09T05:09:06;9.25;;;5.68;;
42246;SDS011;27913;42.722;23.268;2022-09-09T05:11:32;10.80;;;5.60;;
42246;SDS011;27913;42.722;23.268;2022-09-09T05:14:01;13.40;;;6.38;;
42246;SDS011;27913;42.722;23.268;2022-09-09T05:16:26;13.82;;;5.65;;
42246;SDS011;27913;42.722;23.268;2022-09-09T05:18:52;10.93;;;6.03;;
42246;SDS011;27913;42.722;23.268;2022-09-09T05:21:18;9.65;;;5.43;;
42246;SDS011;27913;42.722;23.268;2022-09-09T05:23:45;9.43;;;5.78;;
42246;SDS011;27913;42.722;23.268;2022-09-09T05:26:15;11.05;;;6.28;;
42246;SDS011;27913;42.722;23.268;2022-09-09T05:28:41;19.42;;;6.82;;
42246;SDS011;27913;42.722;23.268;2022-09-09T05:31:08;10.68;;;6.55;;
42246;SDS011;27913;42.722;23.268;2022-09-09T05:33:36;12.75;;;5.97;;
42246;SDS011;27913;42.722;23.268;2022-09-09T05:38:33;11.57;;;6.10;;
42246;SDS011;27913;42.722;23.268;2022-09-09T05:40:59;12.68;;;6.20;;
42246;SDS011;27913;42.722;23.268;2022-09-09T05:43:26;10.57;;;5.97;;
42246;SDS011;27913;42.722;23.268;2022-09-09T05:46:03;16.15;;;6.97;;
42246;SDS011;27913;42.722;23.268;2022-09-09T05:48:37;14.75;;;6.70;;
42246;SDS011;27913;42.722;23.268;2022-09-09T05:51:04;14.13;;;6.45;;
42246;SDS011;27913;42.722;23.268;2022-09-09T05:53:35;11.32;;;6.78;;
42246;SDS011;27913;42.722;23.268;2022-09-09T05:58:34;15.57;;;6.40;;
42246;SDS011;27913;42.722;23.268;2022-09-09T06:01:00;16.10;;;6.90;;
42246;SDS011;27913;42.722;23.268;2022-09-09T06:03:28;9.68;;;6.38;;
42246;SDS011;27913;42.722;23.268;2022-09-09T06:05:58;11.00;;;6.15;;
42246;SDS011;27913;42.722;23.268;2022-09-09T06:08:30;11.23;;;5.95;;
42246;SDS011;27913;42.722;23.268;2022-09-09T06:11:00;10.43;;;6.25;;
42246;SDS011;27913;42.722;23.268;2022-09-09T06:13:28;11.73;;;6.55;;
42246;SDS011;27913;42.722;23.268;2022-09-09T06:15:53;13.30;;;6.63;;
42246;SDS011;27913;42.722;23.268;2022-09-09T06:18:19;10.63;;;6.38;;
42246;SDS011;27913;42.722;23.268;2022-09-09T06:20:57;11.10;;;6.43;;
42246;SDS011;27913;42.722;23.268;2022-09-09T06:23:27;12.20;;;6.90;;
42246;SDS011;27913;42.722;23.268;2022-09-09T06:26:07;11.20;;;6.28;;
42246;SDS011;27913;42.722;23.268;2022-09-09T06:28:38;14.50;;;6.63;;
42246;SDS011;27913;42.722;23.268;2022-09-09T06:31:05;11.10;;;6.38;;
42246;SDS011;27913;42.722;23.268;2022-09-09T06:33:34;9.98;;;5.78;;
42246;SDS011;27913;42.722;23.268;2022-09-09T06:36:01;13.30;;;5.93;;
42246;SDS011;27913;42.722;23.268;2022-09-09T06:38:28;9.25;;;5.38;;
42246;SDS011;27913;42.722;23.268;2022-09-09T06:40:54;9.35;;;5.68;;
42246;SDS011;27913;42.722;23.268;2022-09-09T06:43:21;11.65;;;6.05;;
42246;SDS011;27913;42.722;23.268;2022-09-09T06:48:19;15.52;;;6.43;;
42246;SDS011;27913;42.722;23.268;2022-09-09T06:50:45;12.40;;;6.32;;
42246;SDS011;27913;42.722;23.268;2022-09-09T06:53:11;9.57;;;5.63;;
42246;SDS011;27913;42.722;23.268;2022-09-09T06:55:37;13.35;;;5.55;;
42246;SDS011;27913;42.722;23.268;2022-09-09T06:58:02;12.05;;;5.55;;
42246;SDS011;27913;42.722;23.268;2022-09-09T07:00:33;10.05;;;4.95;;
42246;SDS011;27913;42.722;23.268;2022-09-09T07:02:59;8.95;;;4.70;;
42246;SDS011;27913;42.722;23.268;2022-09-09T07:05:24;10.00;;;5.22;;
42246;SDS011;27913;42.722;23.268;2022-09-09T07:07:51;8.93;;;4.90;;
42246;SDS011;27913;42.722;23.268;2022-09-09T07:10:16;14.25;;;5.03;;
42246;SDS011;27913;42.722;23.268;2022-09-09T07:12:42;9.23;;;4.90;;
42246;SDS011;27913;42.722;23.268;2022-09-09T07:15:08;9.35;;;5.15;;
42246;SDS011;27913;42.722;23.268;2022-09-09T07:17:34;11.07;;;4.80;;
42246;SDS011;27913;42.722;23.268;2022-09-09T07:20:00;7.00;;;4.10;;
42246;SDS011;27913;42.722;23.268;2022-09-09T07:22:27;9.13;;;4.55;;
42246;SDS011;27913;42.722;23.268;2022-09-09T07:24:53;10.50;;;4.68;;
42246;SDS011;27913;42.722;23.268;2022-09-09T07:27:18;15.20;;;4.93;;
42246;SDS011;27913;42.722;23.268;2022-09-09T07:29:46;8.07;;;4.60;;
42246;SDS011;27913;42.722;23.268;2022-09-09T07:32:11;10.27;;;5.00;;
42246;SDS011;27913;42.722;23.268;2022-09-09T07:34:37;9.88;;;5.00;;
42246;SDS011;27913;42.722;23.268;2022-09-09T07:37:02;9.80;;;4.38;;
42246;SDS011;27913;42.722;23.268;2022-09-09T07:39:28;9.80;;;5.03;;
42246;SDS011;27913;42.722;23.268;2022-09-09T07:41:53;8.85;;;4.65;;
42246;SDS011;27913;42.722;23.268;2022-09-09T07:44:23;10.85;;;4.55;;
42246;SDS011;27913;42.722;23.268;2022-09-09T07:46:52;10.40;;;4.88;;
42246;SDS011;27913;42.722;23.268;2022-09-09T07:49:18;10.63;;;4.45;;
42246;SDS011;27913;42.722;23.268;2022-09-09T07:51:44;10.88;;;4.63;;
42246;SDS011;27913;42.722;23.268;2022-09-09T07:54:12;9.32;;;4.47;;
42246;SDS011;27913;42.722;23.268;2022-09-09T07:56:40;8.65;;;4.15;;
42246;SDS011;27913;42.722;23.268;2022-09-09T07:59:07;11.98;;;4.28;;
42246;SDS011;27913;42.722;23.268;2022-09-09T08:01:36;7.32;;;3.58;;
42246;SDS011;27913;42.722;23.268;2022-09-09T08:04:05;11.77;;;3.90;;
42246;SDS011;27913;42.722;23.268;2022-09-09T08:06:37;6.30;;;3.60;;
42246;SDS011;27913;42.722;23.268;2022-09-09T08:09:04;9.68;;;3.67;;
42246;SDS011;27913;42.722;23.268;2022-09-09T08:11:31;9.93;;;3.88;;
42246;SDS011;27913;42.722;23.268;2022-09-09T08:13:58;9.05;;;4.03;;
42246;SDS011;27913;42.722;23.268;2022-09-09T08:16:28;9.02;;;3.70;;
42246;SDS011;27913;42.722;23.268;2022-09-09T08:18:56;8.05;;;3.67;;
42246;SDS011;27913;42.722;23.268;2022-09-09T08:21:26;7.25;;;3.50;;
42246;SDS011;27913;42.722;23.268;2022-09-09T08:26:23;7.43;;;3.78;;
42246;SDS011;27913;42.722;23.268;2022-09-09T08:28:52;7.03;;;3.75;;
42246;SDS011;27913;42.722;23.268;2022-09-09T08:31:28;7.53;;;3.85;;
42246;SDS011;27913;42.722;23.268;2022-09-09T08:33:59;18.05;;;4.15;;
42246;SDS011;27913;42.722;23.268;2022-09-09T08:36:26;14.88;;;3.90;;
42246;SDS011;27913;42.722;23.268;2022-09-09T08:38:54;13.20;;;4.43;;
42246;SDS011;27913;42.722;23.268;2022-09-09T08:52:25;8.93;;;3.50;;
42246;SDS011;27913;42.722;23.268;2022-09-09T08:55:09;7.22;;;3.78;;
42246;SDS011;27913;42.722;23.268;2022-09-09T08:57:47;7.57;;;3.50;;
42246;SDS011;27913;42.722;23.268;2022-09-09T09:00:17;8.57;;;3.47;;
42246;SDS011;27913;42.722;23.268;2022-09-09T09:05:42;6.45;;;3.75;;
42246;SDS011;27913;42.722;23.268;2022-09-09T09:08:25;7.55;;;3.67;;
42246;SDS011;27913;42.722;23.268;2022-09-09T09:10:58;8.93;;;3.90;;
42246;SDS011;27913;42.722;23.268;2022-09-09T09:16:23;8.88;;;3.80;;
42246;SDS011;27913;42.722;23.268;2022-09-09T09:18:57;5.90;;;3.40;;
42246;SDS011;27913;42.722;23.268;2022-09-09T09:21:32;10.65;;;3.72;;
42246;SDS011;27913;42.722;23.268;2022-09-09T09:24:03;11.73;;;3.78;;
42246;SDS011;27913;42.722;23.268;2022-09-09T09:26:40;7.78;;;4.07;;
42246;SDS011;27913;42.722;23.268;2022-09-09T09:29:12;12.82;;;3.95;;
42246;SDS011;27913;42.722;23.268;2022-09-09T09:31:45;9.43;;;3.63;;
42246;SDS011;27913;42.722;23.268;2022-09-09T09:34:16;11.00;;;4.30;;
42246;SDS011;27913;42.722;23.268;2022-09-09T09:39:34;7.72;;;4.00;;
42246;SDS011;27913;42.722;23.268;2022-09-09T09:42:09;11.10;;;3.88;;
42246;SDS011;27913;42.722;23.268;2022-09-09T09:44:37;13.02;;;3.55;;
42246;SDS011;27913;42.722;23.268;2022-09-09T09:47:13;8.55;;;3.63;;
42246;SDS011;27913;42.722;23.268;2022-09-09T09:49:53;8.93;;;3.80;;
42246;SDS011;27913;42.722;23.268;2022-09-09T09:52:24;8.07;;;3.75;;
42246;SDS011;27913;42.722;23.268;2022-09-09T09:54:51;6.20;;;3.47;;
42246;SDS011;27913;42.722;23.268;2022-09-09T09:57:18;9.82;;;4.03;;
42246;SDS011;27913;42.722;23.268;2022-09-09T10:00:01;11.57;;;4.60;;
42246;SDS011;27913;42.722;23.268;2022-09-09T10:02:37;6.93;;;3.90;;
42246;SDS011;27913;42.722;23.268;2022-09-09T10:05:26;7.72;;;4.25;;
42246;SDS011;27913;42.722;23.268;2022-09-09T10:10:42;13.73;;;4.13;;
42246;SDS011;27913;42.722;23.268;2022-09-09T10:13:35;9.48;;;4.45;;
42246;SDS011;27913;42.722;23.268;2022-09-09T10:19:34;7.65;;;3.83;;
42246;SDS011;27913;42.722;23.268;2022-09-09T10:24:36;8.40;;;3.80;;
42246;SDS011;27913;42.722;23.268;2022-09-09T10:30:20;11.93;;;3.60;;
42246;SDS011;27913;42.722;23.268;2022-09-09T10:38:52;12.73;;;4.20;;
42246;SDS011;27913;42.722;23.268;2022-09-09T10:44:21;9.30;;;4.43;;
42246;SDS011;27913;42.722;23.268;2022-09-09T10:55:39;8.07;;;3.95;;
42246;SDS011;27913;42.722;23.268;2022-09-09T10:58:09;8.38;;;4.22;;
42246;SDS011;27913;42.722;23.268;2022-09-09T11:00:46;7.50;;;3.90;;
42246;SDS011;27913;42.722;23.268;2022-09-09T11:03:20;7.07;;;3.80;;
42246;SDS011;27913;42.722;23.268;2022-09-09T11:05:51;8.43;;;3.80;;
42246;SDS011;27913;42.722;23.268;2022-09-09T11:08:23;7.55;;;4.10;;
42246;SDS011;27913;42.722;23.268;2022-09-09T11:14:08;7.38;;;3.75;;
42246;SDS011;27913;42.722;23.268;2022-09-09T11:16:51;11.23;;;4.80;;
42246;SDS011;27913;42.722;23.268;2022-09-09T11:22:50;17.20;;;4.50;;
42246;SDS011;27913;42.722;23.268;2022-09-09T11:30:15;7.78;;;3.72;;
42246;SDS011;27913;42.722;23.268;2022-09-09T11:37:54;9.18;;;4.47;;
42246;SDS011;27913;42.722;23.268;2022-09-09T11:40:24;8.05;;;4.20;;
42246;SDS011;27913;42.722;23.268;2022-09-09T11:43:14;11.60;;;4.57;;
42246;SDS011;27913;42.722;23.268;2022-09-09T11:45:49;11.25;;;4.20;;
42246;SDS011;27913;42.722;23.268;2022-09-09T11:51:13;8.90;;;4.32;;
42246;SDS011;27913;42.722;23.268;2022-09-09T11:53:58;9.68;;;4.20;;
42246;SDS011;27913;42.722;23.268;2022-09-09T11:56:32;7.97;;;4.05;;
42246;SDS011;27913;42.722;23.268;2022-09-09T11:59:02;7.22;;;4.20;;
42246;SDS011;27913;42.722;23.268;2022-09-09T12:01:34;8.57;;;4.53;;
42246;SDS011;27913;42.722;23.268;2022-09-09T12:04:10;14.93;;;4.32;;
42246;SDS011;27913;42.722;23.268;2022-09-09T12:06:46;7.88;;;4.18;;
42246;SDS011;27913;42.722;23.268;2022-09-09T12:11:53;7.75;;;3.83;;
42246;SDS011;27913;42.722;23.268;2022-09-09T12:14:57;8.07;;;4.63;;
42246;SDS011;27913;42.722;23.268;2022-09-09T12:17:29;9.95;;;4.63;;
42246;SDS011;27913;42.722;23.268;2022-09-09T12:20:00;7.18;;;4.13;;
42246;SDS011;27913;42.722;23.268;2022-09-09T12:28:15;10.45;;;4.38;;
42246;SDS011;27913;42.722;23.268;2022-09-09T12:33:18;7.70;;;4.30;;
42246;SDS011;27913;42.722;23.268;2022-09-09T12:35:44;10.23;;;4.50;;
42246;SDS011;27913;42.722;23.268;2022-09-09T12:40:53;10.90;;;4.88;;
42246;SDS011;27913;42.722;23.268;2022-09-09T12:43:24;14.57;;;5.05;;
42246;SDS011;27913;42.722;23.268;2022-09-09T12:45:53;9.45;;;5.05;;
42246;SDS011;27913;42.722;23.268;2022-09-09T12:48:30;9.48;;;4.45;;
42246;SDS011;27913;42.722;23.268;2022-09-09T12:51:01;8.32;;;4.75;;
42246;SDS011;27913;42.722;23.268;2022-09-09T12:53:35;7.65;;;3.60;;
42246;SDS011;27913;42.722;23.268;2022-09-09T12:58:33;11.88;;;4.18;;
42246;SDS011;27913;42.722;23.268;2022-09-09T13:01:01;7.65;;;3.45;;
42246;SDS011;27913;42.722;23.268;2022-09-09T13:03:31;11.70;;;3.50;;
42246;SDS011;27913;42.722;23.268;2022-09-09T13:05:59;9.75;;;3.50;;
42246;SDS011;27913;42.722;23.268;2022-09-09T13:08:37;8.30;;;3.10;;
42246;SDS011;27913;42.722;23.268;2022-09-09T13:11:03;6.28;;;3.20;;
42246;SDS011;27913;42.722;23.268;2022-09-09T13:13:35;7.60;;;3.55;;
42246;SDS011;27913;42.722;23.268;2022-09-09T13:16:03;8.98;;;3.30;;
42246;SDS011;27913;42.722;23.268;2022-09-09T13:18:33;8.80;;;3.45;;
42246;SDS011;27913;42.722;23.268;2022-09-09T13:21:01;8.98;;;3.97;;
42246;SDS011;27913;42.722;23.268;2022-09-09T13:23:30;13.88;;;3.83;;
42246;SDS011;27913;42.722;23.268;2022-09-09T13:26:01;7.38;;;3.42;;
42246;SDS011;27913;42.722;23.268;2022-09-09T13:28:32;6.03;;;3.22;;
42246;SDS011;27913;42.722;23.268;2022-09-09T13:31:00;8.82;;;3.70;;
42246;SDS011;27913;42.722;23.268;2022-09-09T13:33:30;11.10;;;3.92;;
42246;SDS011;27913;42.722;23.268;2022-09-09T13:38:54;8.75;;;3.50;;
42246;SDS011;27913;42.722;23.268;2022-09-09T13:41:22;9.43;;;3.55;;
42246;SDS011;27913;42.722;23.268;2022-09-09T13:44:00;10.55;;;3.90;;
42246;SDS011;27913;42.722;23.268;2022-09-09T13:49:00;12.55;;;4.18;;
42246;SDS011;27913;42.722;23.268;2022-09-09T13:51:46;7.05;;;3.30;;
42246;SDS011;27913;42.722;23.268;2022-09-09T13:54:15;8.20;;;3.97;;
42246;SDS011;27913;42.722;23.268;2022-09-09T13:56:41;6.45;;;3.42;;
42246;SDS011;27913;42.722;23.268;2022-09-09T13:59:15;5.75;;;2.70;;
42246;SDS011;27913;42.722;23.268;2022-09-09T14:01:42;6.95;;;3.00;;
42246;SDS011;27913;42.722;23.268;2022-09-09T14:04:08;8.77;;;3.22;;
42246;SDS011;27913;42.722;23.268;2022-09-09T14:06:37;6.93;;;3.20;;
42246;SDS011;27913;42.722;23.268;2022-09-09T14:09:09;11.15;;;3.17;;
42246;SDS011;27913;42.722;23.268;2022-09-09T14:11:37;5.47;;;2.97;;
42246;SDS011;27913;42.722;23.268;2022-09-09T14:14:03;6.70;;;3.47;;
42246;SDS011;27913;42.722;23.268;2022-09-09T14:16:28;9.82;;;3.58;;
42246;SDS011;27913;42.722;23.268;2022-09-09T14:18:54;7.38;;;3.58;;
42246;SDS011;27913;42.722;23.268;2022-09-09T14:21:24;6.97;;;3.00;;
42246;SDS011;27913;42.722;23.268;2022-09-09T14:23:50;9.40;;;3.17;;
42246;SDS011;27913;42.722;23.268;2022-09-09T14:26:18;5.40;;;2.67;;
42246;SDS011;27913;42.722;23.268;2022-09-09T14:28:46;7.50;;;3.15;;
42246;SDS011;27913;42.722;23.268;2022-09-09T14:31:12;7.78;;;3.40;;
42246;SDS011;27913;42.722;23.268;2022-09-09T14:33:38;9.13;;;3.13;;
42246;SDS011;27913;42.722;23.268;2022-09-09T14:36:04;7.60;;;3.20;;
42246;SDS011;27913;42.722;23.268;2022-09-09T14:38:31;5.15;;;2.80;;
42246;SDS011;27913;42.722;23.268;2022-09-09T14:40:59;12.20;;;3.55;;
42246;SDS011;27913;42.722;23.268;2022-09-09T14:43:26;9.38;;;3.63;;
42246;SDS011;27913;42.722;23.268;2022-09-09T14:45:52;11.45;;;3.40;;
42246;SDS011;27913;42.722;23.268;2022-09-09T14:48:18;8.55;;;3.58;;
42246;SDS011;27913;42.722;23.268;2022-09-09T14:50:44;13.98;;;4.00;;
42246;SDS011;27913;42.722;23.268;2022-09-09T14:53:09;10.95;;;3.53;;
42246;SDS011;27913;42.722;23.268;2022-09-09T14:55:35;7.53;;;4.13;;
42246;SDS011;27913;42.722;23.268;2022-09-09T14:58:02;9.27;;;4.18;;
42246;SDS011;27913;42.722;23.268;2022-09-09T15:00:27;10.15;;;4.53;;
42246;SDS011;27913;42.722;23.268;2022-09-09T15:02:53;9.23;;;4.03;;
42246;SDS011;27913;42.722;23.268;2022-09-09T15:05:20;9.75;;;4.50;;
42246;SDS011;27913;42.722;23.268;2022-09-09T15:07:46;8.35;;;4.10;;
42246;SDS011;27913;42.722;23.268;2022-09-09T15:10:13;9.95;;;4.15;;
42246;SDS011;27913;42.722;23.268;2022-09-09T15:12:39;7.53;;;3.63;;
42246;SDS011;27913;42.722;23.268;2022-09-09T15:15:06;8.23;;;3.47;;
42246;SDS011;27913;42.722;23.268;2022-09-09T15:17:32;12.43;;;3.60;;
42246;SDS011;27913;42.722;23.268;2022-09-09T15:19:58;9.23;;;3.50;;
42246;SDS011;27913;42.722;23.268;2022-09-09T15:22:23;8.82;;;3.22;;
42246;SDS011;27913;42.722;23.268;2022-09-09T15:24:49;7.78;;;3.63;;
42246;SDS011;27913;42.722;23.268;2022-09-09T15:27:15;8.75;;;3.72;;
42246;SDS011;27913;42.722;23.268;2022-09-09T15:29:41;8.38;;;3.92;;
42246;SDS011;27913;42.722;23.268;2022-09-09T15:32:07;9.57;;;3.75;;
42246;SDS011;27913;42.722;23.268;2022-09-09T15:34:33;9.25;;;4.22;;
42246;SDS011;27913;42.722;23.268;2022-09-09T15:36:58;7.65;;;3.03;;
42246;SDS011;27913;42.722;23.268;2022-09-09T15:39:25;8.25;;;3.90;;
42246;SDS011;27913;42.722;23.268;2022-09-09T15:41:50;5.40;;;3.10;;
42246;SDS011;27913;42.722;23.268;2022-09-09T15:44:16;8.00;;;3.35;;
42246;SDS011;27913;42.722;23.268;2022-09-09T15:46:45;7.43;;;3.25;;
42246;SDS011;27913;42.722;23.268;2022-09-09T15:49:14;10.23;;;3.55;;
42246;SDS011;27913;42.722;23.268;2022-09-09T15:51:54;7.25;;;3.45;;
42246;SDS011;27913;42.722;23.268;2022-09-09T15:54:22;8.50;;;3.38;;
42246;SDS011;27913;42.722;23.268;2022-09-09T15:56:53;5.57;;;2.85;;
42246;SDS011;27913;42.722;23.268;2022-09-09T15:59:21;8.25;;;3.50;;
42246;SDS011;27913;42.722;23.268;2022-09-09T16:01:48;7.40;;;3.80;;
42246;SDS011;27913;42.722;23.268;2022-09-09T16:04:16;11.98;;;4.05;;
42246;SDS011;27913;42.722;23.268;2022-09-09T16:06:48;7.78;;;3.53;;
42246;SDS011;27913;42.722;23.268;2022-09-09T16:09:16;10.07;;;4.43;;
42246;SDS011;27913;42.722;23.268;2022-09-09T16:11:42;8.93;;;3.75;;
42246;SDS011;27913;42.722;23.268;2022-09-09T16:14:07;8.93;;;3.58;;
42246;SDS011;27913;42.722;23.268;2022-09-09T16:16:32;6.78;;;3.67;;
42246;SDS011;27913;42.722;23.268;2022-09-09T16:19:01;8.23;;;3.53;;
42246;SDS011;27913;42.722;23.268;2022-09-09T16:21:30;8.40;;;3.70;;
42246;SDS011;27913;42.722;23.268;2022-09-09T16:23:58;10.57;;;3.67;;
42246;SDS011;27913;42.722;23.268;2022-09-09T16:26:25;8.35;;;3.63;;
42246;SDS011;27913;42.722;23.268;2022-09-09T16:28:52;9.70;;;3.92;;
42246;SDS011;27913;42.722;23.268;2022-09-09T16:31:21;9.18;;;4.68;;
42246;SDS011;27913;42.722;23.268;2022-09-09T16:33:48;8.55;;;4.47;;
42246;SDS011;27913;42.722;23.268;2022-09-09T16:36:34;8.07;;;4.47;;
42246;SDS011;27913;42.722;23.268;2022-09-09T16:39:04;9.43;;;4.03;;
42246;SDS011;27913;42.722;23.268;2022-09-09T16:41:32;7.57;;;4.18;;
42246;SDS011;27913;42.722;23.268;2022-09-09T16:43:59;8.48;;;4.28;;
42246;SDS011;27913;42.722;23.268;2022-09-09T16:46:27;11.13;;;4.70;;
42246;SDS011;27913;42.722;23.268;2022-09-09T16:48:55;8.35;;;4.22;;
42246;SDS011;27913;42.722;23.268;2022-09-09T16:51:23;9.35;;;3.60;;
42246;SDS011;27913;42.722;23.268;2022-09-09T16:53:54;8.65;;;4.00;;
42246;SDS011;27913;42.722;23.268;2022-09-09T16:56:21;12.18;;;3.95;;
42246;SDS011;27913;42.722;23.268;2022-09-09T16:58:54;7.40;;;4.20;;
42246;SDS011;27913;42.722;23.268;2022-09-09T17:01:24;10.98;;;3.55;;
42246;SDS011;27913;42.722;23.268;2022-09-09T17:03:58;9.70;;;4.03;;
42246;SDS011;27913;42.722;23.268;2022-09-09T17:06:28;9.40;;;4.13;;
42246;SDS011;27913;42.722;23.268;2022-09-09T17:08:59;8.73;;;3.50;;
42246;SDS011;27913;42.722;23.268;2022-09-09T17:11:31;12.20;;;4.97;;
42246;SDS011;27913;42.722;23.268;2022-09-09T17:13:58;11.32;;;3.88;;
42246;SDS011;27913;42.722;23.268;2022-09-09T17:16:25;12.25;;;4.82;;
42246;SDS011;27913;42.722;23.268;2022-09-09T17:18:52;9.75;;;3.60;;